sensor_id;sensor_type;location;lat;lon;timestamp;pressure;altitude;pressure_sealevel;temperature
19040;BMP180;9652;49.014;12.052;2023-12-28T00:02:02;98011.00;;;6.60
19040;BMP180;9652;49.014;12.052;2023-12-28T00:04:29;98012.00;;;6.60
19040;BMP180;9652;49.014;12.052;2023-12-28T00:06:57;98012.00;;;6.50
19040;BMP180;9652;49.014;12.052;2023-12-28T00:09:24;98023.00;;;6.50
19040;BMP180;9652;49.014;12.052;2023-12-28T00:11:51;98021.00;;;6.50
19040;BMP180;9652;49.014;12.052;2023-12-28T00:14:18;98031.00;;;6.40
19040;BMP180;9652;49.014;12.052;2023-12-28T00:16:45;98046.00;;;6.40
19040;BMP180;9652;49.014;12.052;2023-12-28T00:19:12;98041.00;;;6.30
19040;BMP180;9652;49.014;12.052;2023-12-28T00:21:39;98041.00;;;6.30
19040;BMP180;9652;49.014;12.052;2023-12-28T00:24:08;98047.00;;;6.30
19040;BMP180;9652;49.014;12.052;2023-12-28T00:26:35;98031.00;;;6.30
19040;BMP180;9652;49.014;12.052;2023-12-28T00:29:03;98029.00;;;6.20
19040;BMP180;9652;49.014;12.052;2023-12-28T00:31:30;98035.00;;;6.20
19040;BMP180;9652;49.014;12.052;2023-12-28T00:33:57;98029.00;;;6.20
19040;BMP180;9652;49.014;12.052;2023-12-28T00:36:24;98036.00;;;6.20
19040;BMP180;9652;49.014;12.052;2023-12-28T00:38:52;98030.00;;;6.10
19040;BMP180;9652;49.014;12.052;2023-12-28T00:41:21;98023.00;;;6.10
19040;BMP180;9652;49.014;12.052;2023-12-28T00:43:48;98013.00;;;6.10
19040;BMP180;9652;49.014;12.052;2023-12-28T00:46:15;98028.00;;;6.10
19040;BMP180;9652;49.014;12.052;2023-12-28T00:48:42;98030.00;;;6.00
19040;BMP180;9652;49.014;12.052;2023-12-28T00:51:09;98025.00;;;6.00
19040;BMP180;9652;49.014;12.052;2023-12-28T00:53:36;98016.00;;;6.00
19040;BMP180;9652;49.014;12.052;2023-12-28T00:56:04;98011.00;;;5.90
19040;BMP180;9652;49.014;12.052;2023-12-28T00:58:32;98035.00;;;5.90
19040;BMP180;9652;49.014;12.052;2023-12-28T01:00:59;98015.00;;;5.80
19040;BMP180;9652;49.014;12.052;2023-12-28T01:03:26;98036.00;;;5.80
19040;BMP180;9652;49.014;12.052;2023-12-28T01:05:53;98037.00;;;5.80
19040;BMP180;9652;49.014;12.052;2023-12-28T01:08:20;98032.00;;;5.80
19040;BMP180;9652;49.014;12.052;2023-12-28T01:10:49;98043.00;;;5.70
19040;BMP180;9652;49.014;12.052;2023-12-28T01:13:16;98053.00;;;5.70
19040;BMP180;9652;49.014;12.052;2023-12-28T01:15:44;98038.00;;;5.70
19040;BMP180;9652;49.014;12.052;2023-12-28T01:18:11;98050.00;;;5.60
19040;BMP180;9652;49.014;12.052;2023-12-28T01:20:38;98050.00;;;5.60
19040;BMP180;9652;49.014;12.052;2023-12-28T01:23:05;98057.00;;;5.60
19040;BMP180;9652;49.014;12.052;2023-12-28T01:25:32;98044.00;;;5.50
19040;BMP180;9652;49.014;12.052;2023-12-28T01:27:59;98054.00;;;5.50
19040;BMP180;9652;49.014;12.052;2023-12-28T01:30:26;98068.00;;;5.50
19040;BMP180;9652;49.014;12.052;2023-12-28T01:32:55;98066.00;;;5.50
19040;BMP180;9652;49.014;12.052;2023-12-28T01:35:22;98058.00;;;5.50
19040;BMP180;9652;49.014;12.052;2023-12-28T01:37:49;98083.00;;;5.50
19040;BMP180;9652;49.014;12.052;2023-12-28T01:40:16;98057.00;;;5.40
19040;BMP180;9652;49.014;12.052;2023-12-28T01:42:45;98059.00;;;5.40
19040;BMP180;9652;49.014;12.052;2023-12-28T01:45:12;98066.00;;;5.40
19040;BMP180;9652;49.014;12.052;2023-12-28T01:47:40;98070.00;;;5.30
19040;BMP180;9652;49.014;12.052;2023-12-28T01:50:09;98069.00;;;5.30
19040;BMP180;9652;49.014;12.052;2023-12-28T01:52:37;98050.00;;;5.30
19040;BMP180;9652;49.014;12.052;2023-12-28T01:55:07;98072.00;;;5.30
19040;BMP180;9652;49.014;12.052;2023-12-28T01:57:35;98072.00;;;5.30
19040;BMP180;9652;49.014;12.052;2023-12-28T02:00:03;98065.00;;;5.30
19040;BMP180;9652;49.014;12.052;2023-12-28T02:02:38;98070.00;;;5.20
19040;BMP180;9652;49.014;12.052;2023-12-28T02:05:10;98074.00;;;5.20
19040;BMP180;9652;49.014;12.052;2023-12-28T02:07:38;98062.00;;;5.20
19040;BMP180;9652;49.014;12.052;2023-12-28T02:10:07;98066.00;;;5.10
19040;BMP180;9652;49.014;12.052;2023-12-28T02:12:34;98066.00;;;5.10
19040;BMP180;9652;49.014;12.052;2023-12-28T02:15:02;98072.00;;;5.10
19040;BMP180;9652;49.014;12.052;2023-12-28T02:17:37;98070.00;;;5.00
19040;BMP180;9652;49.014;12.052;2023-12-28T02:20:10;98073.00;;;5.00
19040;BMP180;9652;49.014;12.052;2023-12-28T02:22:38;98052.00;;;5.00
19040;BMP180;9652;49.014;12.052;2023-12-28T02:25:08;98069.00;;;5.00
19040;BMP180;9652;49.014;12.052;2023-12-28T02:27:40;98083.00;;;5.00
19040;BMP180;9652;49.014;12.052;2023-12-28T02:30:09;97989.00;;;5.00
19040;BMP180;9652;49.014;12.052;2023-12-28T02:32:49;98047.00;;;5.00
19040;BMP180;9652;49.014;12.052;2023-12-28T02:35:24;98023.00;;;5.00
19040;BMP180;9652;49.014;12.052;2023-12-28T02:37:56;97915.00;;;4.90
19040;BMP180;9652;49.014;12.052;2023-12-28T02:40:27;98009.00;;;4.90
19040;BMP180;9652;49.014;12.052;2023-12-28T02:42:54;98049.00;;;4.90
19040;BMP180;9652;49.014;12.052;2023-12-28T02:45:22;98032.00;;;4.90
19040;BMP180;9652;49.014;12.052;2023-12-28T02:47:48;98044.00;;;4.80
19040;BMP180;9652;49.014;12.052;2023-12-28T02:50:16;98034.00;;;4.80
19040;BMP180;9652;49.014;12.052;2023-12-28T02:52:43;98047.00;;;4.80
19040;BMP180;9652;49.014;12.052;2023-12-28T02:55:10;98028.00;;;4.80
19040;BMP180;9652;49.014;12.052;2023-12-28T02:57:39;98053.00;;;4.80
19040;BMP180;9652;49.014;12.052;2023-12-28T03:00:07;98046.00;;;4.80
19040;BMP180;9652;49.014;12.052;2023-12-28T03:02:36;98031.00;;;4.80
19040;BMP180;9652;49.014;12.052;2023-12-28T03:05:05;98017.00;;;4.80
19040;BMP180;9652;49.014;12.052;2023-12-28T03:07:32;98055.00;;;4.80
19040;BMP180;9652;49.014;12.052;2023-12-28T03:10:00;98061.00;;;4.70
19040;BMP180;9652;49.014;12.052;2023-12-28T03:12:28;98033.00;;;4.70
19040;BMP180;9652;49.014;12.052;2023-12-28T03:14:57;98052.00;;;4.70
19040;BMP180;9652;49.014;12.052;2023-12-28T03:17:24;98057.00;;;4.70
19040;BMP180;9652;49.014;12.052;2023-12-28T03:19:51;98056.00;;;4.70
19040;BMP180;9652;49.014;12.052;2023-12-28T03:22:18;98057.00;;;4.70
19040;BMP180;9652;49.014;12.052;2023-12-28T03:24:47;98047.00;;;4.70
19040;BMP180;9652;49.014;12.052;2023-12-28T03:27:14;98058.00;;;4.70
19040;BMP180;9652;49.014;12.052;2023-12-28T03:29:41;98049.00;;;4.70
19040;BMP180;9652;49.014;12.052;2023-12-28T03:32:11;98046.00;;;4.70
19040;BMP180;9652;49.014;12.052;2023-12-28T03:34:39;98050.00;;;4.70
19040;BMP180;9652;49.014;12.052;2023-12-28T03:37:06;98049.00;;;4.70
19040;BMP180;9652;49.014;12.052;2023-12-28T03:39:33;98062.00;;;4.70
19040;BMP180;9652;49.014;12.052;2023-12-28T03:42:00;98052.00;;;4.70
19040;BMP180;9652;49.014;12.052;2023-12-28T03:44:27;98057.00;;;4.70
19040;BMP180;9652;49.014;12.052;2023-12-28T03:46:54;98059.00;;;4.70
19040;BMP180;9652;49.014;12.052;2023-12-28T03:49:23;98067.00;;;4.60
19040;BMP180;9652;49.014;12.052;2023-12-28T03:51:51;98046.00;;;4.60
19040;BMP180;9652;49.014;12.052;2023-12-28T03:54:19;98070.00;;;4.60
19040;BMP180;9652;49.014;12.052;2023-12-28T03:56:46;98051.00;;;4.60
19040;BMP180;9652;49.014;12.052;2023-12-28T03:59:14;98068.00;;;4.60
19040;BMP180;9652;49.014;12.052;2023-12-28T04:01:42;98063.00;;;4.60
19040;BMP180;9652;49.014;12.052;2023-12-28T04:04:09;98044.00;;;4.60
19040;BMP180;9652;49.014;12.052;2023-12-28T04:06:38;98070.00;;;4.60
19040;BMP180;9652;49.014;12.052;2023-12-28T04:09:07;98058.00;;;4.60
19040;BMP180;9652;49.014;12.052;2023-12-28T04:11:34;98070.00;;;4.60
19040;BMP180;9652;49.014;12.052;2023-12-28T04:14:01;98073.00;;;4.60
19040;BMP180;9652;49.014;12.052;2023-12-28T04:16:28;98069.00;;;4.50
19040;BMP180;9652;49.014;12.052;2023-12-28T04:18:55;98026.00;;;4.50
19040;BMP180;9652;49.014;12.052;2023-12-28T04:21:22;98076.00;;;4.50
19040;BMP180;9652;49.014;12.052;2023-12-28T04:23:51;98058.00;;;4.50
19040;BMP180;9652;49.014;12.052;2023-12-28T04:26:18;98074.00;;;4.50
19040;BMP180;9652;49.014;12.052;2023-12-28T04:28:46;98071.00;;;4.50
19040;BMP180;9652;49.014;12.052;2023-12-28T04:31:13;98082.00;;;4.50
19040;BMP180;9652;49.014;12.052;2023-12-28T04:33:40;98081.00;;;4.50
19040;BMP180;9652;49.014;12.052;2023-12-28T04:36:08;98075.00;;;4.40
19040;BMP180;9652;49.014;12.052;2023-12-28T04:38:36;98076.00;;;4.40
19040;BMP180;9652;49.014;12.052;2023-12-28T04:41:06;98081.00;;;4.40
19040;BMP180;9652;49.014;12.052;2023-12-28T04:43:33;98063.00;;;4.40
19040;BMP180;9652;49.014;12.052;2023-12-28T04:46:03;98075.00;;;4.40
19040;BMP180;9652;49.014;12.052;2023-12-28T04:48:30;98091.00;;;4.30
19040;BMP180;9652;49.014;12.052;2023-12-28T04:50:58;98083.00;;;4.30
19040;BMP180;9652;49.014;12.052;2023-12-28T04:53:25;98076.00;;;4.40
19040;BMP180;9652;49.014;12.052;2023-12-28T04:55:52;98073.00;;;4.30
19040;BMP180;9652;49.014;12.052;2023-12-28T04:58:23;98089.00;;;4.30
19040;BMP180;9652;49.014;12.052;2023-12-28T05:00:50;98090.00;;;4.30
19040;BMP180;9652;49.014;12.052;2023-12-28T05:03:18;98094.00;;;4.30
19040;BMP180;9652;49.014;12.052;2023-12-28T05:05:45;98080.00;;;4.30
19040;BMP180;9652;49.014;12.052;2023-12-28T05:08:15;98099.00;;;4.30
19040;BMP180;9652;49.014;12.052;2023-12-28T05:10:42;98104.00;;;4.30
19040;BMP180;9652;49.014;12.052;2023-12-28T05:13:10;98103.00;;;4.30
19040;BMP180;9652;49.014;12.052;2023-12-28T05:15:39;98090.00;;;4.20
19040;BMP180;9652;49.014;12.052;2023-12-28T05:18:06;98089.00;;;4.30
19040;BMP180;9652;49.014;12.052;2023-12-28T05:20:34;98100.00;;;4.30
19040;BMP180;9652;49.014;12.052;2023-12-28T05:23:01;98087.00;;;4.20
19040;BMP180;9652;49.014;12.052;2023-12-28T05:25:28;98100.00;;;4.20
19040;BMP180;9652;49.014;12.052;2023-12-28T05:27:56;98095.00;;;4.20
19040;BMP180;9652;49.014;12.052;2023-12-28T05:30:23;98093.00;;;4.20
19040;BMP180;9652;49.014;12.052;2023-12-28T05:32:52;98084.00;;;4.20
19040;BMP180;9652;49.014;12.052;2023-12-28T05:35:19;98089.00;;;4.20
19040;BMP180;9652;49.014;12.052;2023-12-28T05:37:46;98072.00;;;4.20
19040;BMP180;9652;49.014;12.052;2023-12-28T05:40:13;98087.00;;;4.20
19040;BMP180;9652;49.014;12.052;2023-12-28T05:42:40;98085.00;;;4.20
19040;BMP180;9652;49.014;12.052;2023-12-28T05:45:09;98078.00;;;4.20
19040;BMP180;9652;49.014;12.052;2023-12-28T05:47:36;98076.00;;;4.20
19040;BMP180;9652;49.014;12.052;2023-12-28T05:50:05;98083.00;;;4.20
19040;BMP180;9652;49.014;12.052;2023-12-28T05:52:32;98095.00;;;4.20
19040;BMP180;9652;49.014;12.052;2023-12-28T05:54:59;98107.00;;;4.20
19040;BMP180;9652;49.014;12.052;2023-12-28T05:57:26;98087.00;;;4.20
19040;BMP180;9652;49.014;12.052;2023-12-28T05:59:55;98087.00;;;4.10
19040;BMP180;9652;49.014;12.052;2023-12-28T06:02:22;98112.00;;;4.10
19040;BMP180;9652;49.014;12.052;2023-12-28T06:04:49;98093.00;;;4.10
19040;BMP180;9652;49.014;12.052;2023-12-28T06:07:18;98093.00;;;4.10
19040;BMP180;9652;49.014;12.052;2023-12-28T06:09:45;98075.00;;;4.10
19040;BMP180;9652;49.014;12.052;2023-12-28T06:12:12;98092.00;;;4.10
19040;BMP180;9652;49.014;12.052;2023-12-28T06:14:40;98086.00;;;4.10
19040;BMP180;9652;49.014;12.052;2023-12-28T06:17:07;98082.00;;;4.20
19040;BMP180;9652;49.014;12.052;2023-12-28T06:19:34;98080.00;;;4.10
19040;BMP180;9652;49.014;12.052;2023-12-28T06:22:01;98077.00;;;4.10
19040;BMP180;9652;49.014;12.052;2023-12-28T06:24:30;98089.00;;;4.10
19040;BMP180;9652;49.014;12.052;2023-12-28T06:26:57;98040.00;;;4.10
19040;BMP180;9652;49.014;12.052;2023-12-28T06:29:24;98113.00;;;4.10
19040;BMP180;9652;49.014;12.052;2023-12-28T06:31:51;98098.00;;;4.10
19040;BMP180;9652;49.014;12.052;2023-12-28T06:34:18;98112.00;;;4.10
19040;BMP180;9652;49.014;12.052;2023-12-28T06:36:45;98117.00;;;3.60
19040;BMP180;9652;49.014;12.052;2023-12-28T06:39:12;98115.00;;;4.10
19040;BMP180;9652;49.014;12.052;2023-12-28T06:41:40;98120.00;;;4.20
19040;BMP180;9652;49.014;12.052;2023-12-28T06:44:07;98096.00;;;4.20
19040;BMP180;9652;49.014;12.052;2023-12-28T06:46:35;98118.00;;;4.20
19040;BMP180;9652;49.014;12.052;2023-12-28T06:49:02;98133.00;;;4.20
19040;BMP180;9652;49.014;12.052;2023-12-28T06:51:29;98130.00;;;4.20
19040;BMP180;9652;49.014;12.052;2023-12-28T06:53:57;98134.00;;;4.20
19040;BMP180;9652;49.014;12.052;2023-12-28T06:56:24;98146.00;;;4.20
19040;BMP180;9652;49.014;12.052;2023-12-28T06:58:53;98138.00;;;4.30
19040;BMP180;9652;49.014;12.052;2023-12-28T07:01:20;98145.00;;;4.30
19040;BMP180;9652;49.014;12.052;2023-12-28T07:03:47;98133.00;;;4.30
19040;BMP180;9652;49.014;12.052;2023-12-28T07:06:14;98150.00;;;4.40
19040;BMP180;9652;49.014;12.052;2023-12-28T07:08:41;98136.00;;;4.40
19040;BMP180;9652;49.014;12.052;2023-12-28T07:11:09;98134.00;;;4.50
19040;BMP180;9652;49.014;12.052;2023-12-28T07:13:37;98156.00;;;4.50
19040;BMP180;9652;49.014;12.052;2023-12-28T07:16:06;98140.00;;;4.60
19040;BMP180;9652;49.014;12.052;2023-12-28T07:18:34;98156.00;;;4.60
19040;BMP180;9652;49.014;12.052;2023-12-28T07:21:01;98136.00;;;4.70
19040;BMP180;9652;49.014;12.052;2023-12-28T07:23:29;98150.00;;;4.70
19040;BMP180;9652;49.014;12.052;2023-12-28T07:25:56;98151.00;;;4.80
19040;BMP180;9652;49.014;12.052;2023-12-28T07:28:23;98155.00;;;4.80
19040;BMP180;9652;49.014;12.052;2023-12-28T07:30:50;98157.00;;;4.90
19040;BMP180;9652;49.014;12.052;2023-12-28T07:33:19;98115.00;;;5.00
19040;BMP180;9652;49.014;12.052;2023-12-28T07:35:46;98151.00;;;5.00
19040;BMP180;9652;49.014;12.052;2023-12-28T07:38:13;98147.00;;;5.10
19040;BMP180;9652;49.014;12.052;2023-12-28T07:40:41;98144.00;;;5.20
19040;BMP180;9652;49.014;12.052;2023-12-28T07:43:08;98146.00;;;5.30
19040;BMP180;9652;49.014;12.052;2023-12-28T07:45:35;98158.00;;;5.40
19040;BMP180;9652;49.014;12.052;2023-12-28T07:48:05;98158.00;;;5.40
19040;BMP180;9652;49.014;12.052;2023-12-28T07:50:34;98163.00;;;5.50
19040;BMP180;9652;49.014;12.052;2023-12-28T07:53:01;98169.00;;;5.60
19040;BMP180;9652;49.014;12.052;2023-12-28T07:55:28;98152.00;;;5.70
19040;BMP180;9652;49.014;12.052;2023-12-28T07:57:55;98146.00;;;5.80
19040;BMP180;9652;49.014;12.052;2023-12-28T08:00:22;98163.00;;;5.80
19040;BMP180;9652;49.014;12.052;2023-12-28T08:02:49;98139.00;;;5.90
19040;BMP180;9652;49.014;12.052;2023-12-28T08:05:16;98155.00;;;6.00
19040;BMP180;9652;49.014;12.052;2023-12-28T08:07:44;98164.00;;;6.10
19040;BMP180;9652;49.014;12.052;2023-12-28T08:10:12;98170.00;;;6.10
19040;BMP180;9652;49.014;12.052;2023-12-28T08:12:39;98163.00;;;6.20
19040;BMP180;9652;49.014;12.052;2023-12-28T08:15:07;98146.00;;;6.40
19040;BMP180;9652;49.014;12.052;2023-12-28T08:17:34;98133.00;;;6.50
19040;BMP180;9652;49.014;12.052;2023-12-28T08:20:02;98118.00;;;6.60
19040;BMP180;9652;49.014;12.052;2023-12-28T08:22:29;98139.00;;;6.70
19040;BMP180;9652;49.014;12.052;2023-12-28T08:24:58;98139.00;;;6.80
19040;BMP180;9652;49.014;12.052;2023-12-28T08:27:25;98157.00;;;6.90
19040;BMP180;9652;49.014;12.052;2023-12-28T08:29:52;98159.00;;;7.00
19040;BMP180;9652;49.014;12.052;2023-12-28T08:32:19;98150.00;;;7.00
19040;BMP180;9652;49.014;12.052;2023-12-28T08:34:46;98150.00;;;6.90
19040;BMP180;9652;49.014;12.052;2023-12-28T08:37:13;98147.00;;;7.10
19040;BMP180;9652;49.014;12.052;2023-12-28T08:39:40;98156.00;;;7.20
19040;BMP180;9652;49.014;12.052;2023-12-28T08:42:09;98165.00;;;7.20
19040;BMP180;9652;49.014;12.052;2023-12-28T08:44:36;98164.00;;;7.30
19040;BMP180;9652;49.014;12.052;2023-12-28T08:47:03;98174.00;;;7.30
19040;BMP180;9652;49.014;12.052;2023-12-28T08:49:30;98183.00;;;7.30
19040;BMP180;9652;49.014;12.052;2023-12-28T08:51:58;98181.00;;;7.40
19040;BMP180;9652;49.014;12.052;2023-12-28T08:54:25;98176.00;;;7.50
19040;BMP180;9652;49.014;12.052;2023-12-28T08:56:52;98182.00;;;7.50
19040;BMP180;9652;49.014;12.052;2023-12-28T08:59:21;98186.00;;;7.60
19040;BMP180;9652;49.014;12.052;2023-12-28T09:01:48;98181.00;;;7.60
19040;BMP180;9652;49.014;12.052;2023-12-28T09:04:15;98167.00;;;7.70
19040;BMP180;9652;49.014;12.052;2023-12-28T09:06:42;98178.00;;;7.70
19040;BMP180;9652;49.014;12.052;2023-12-28T09:09:09;98176.00;;;7.80
19040;BMP180;9652;49.014;12.052;2023-12-28T09:11:36;98184.00;;;7.80
19040;BMP180;9652;49.014;12.052;2023-12-28T09:14:03;98171.00;;;7.90
19040;BMP180;9652;49.014;12.052;2023-12-28T09:16:31;98170.00;;;8.00
19040;BMP180;9652;49.014;12.052;2023-12-28T09:18:59;98182.00;;;8.10
19040;BMP180;9652;49.014;12.052;2023-12-28T09:21:26;98195.00;;;8.10
19040;BMP180;9652;49.014;12.052;2023-12-28T09:23:53;98196.00;;;8.20
19040;BMP180;9652;49.014;12.052;2023-12-28T09:26:20;98204.00;;;8.20
19040;BMP180;9652;49.014;12.052;2023-12-28T09:28:47;98195.00;;;8.30
19040;BMP180;9652;49.014;12.052;2023-12-28T09:31:14;98184.00;;;8.30
19040;BMP180;9652;49.014;12.052;2023-12-28T09:33:43;98191.00;;;8.30
19040;BMP180;9652;49.014;12.052;2023-12-28T09:36:10;98165.00;;;8.40
19040;BMP180;9652;49.014;12.052;2023-12-28T09:38:38;98182.00;;;8.40
19040;BMP180;9652;49.014;12.052;2023-12-28T09:41:12;98182.00;;;8.40
19040;BMP180;9652;49.014;12.052;2023-12-28T09:43:50;98173.00;;;8.40
19040;BMP180;9652;49.014;12.052;2023-12-28T09:46:19;98170.00;;;8.50
19040;BMP180;9652;49.014;12.052;2023-12-28T09:48:48;98167.00;;;8.50
19040;BMP180;9652;49.014;12.052;2023-12-28T09:51:15;98161.00;;;8.60
19040;BMP180;9652;49.014;12.052;2023-12-28T09:53:43;98156.00;;;8.60
19040;BMP180;9652;49.014;12.052;2023-12-28T09:56:12;98115.00;;;8.60
19040;BMP180;9652;49.014;12.052;2023-12-28T09:58:40;98163.00;;;8.60
19040;BMP180;9652;49.014;12.052;2023-12-28T10:01:09;98163.00;;;8.60
19040;BMP180;9652;49.014;12.052;2023-12-28T10:03:36;98166.00;;;8.60
19040;BMP180;9652;49.014;12.052;2023-12-28T10:06:05;98170.00;;;8.70
19040;BMP180;9652;49.014;12.052;2023-12-28T10:08:32;98185.00;;;8.70
19040;BMP180;9652;49.014;12.052;2023-12-28T10:10:59;98157.00;;;8.70
19040;BMP180;9652;49.014;12.052;2023-12-28T10:13:27;98153.00;;;8.70
19040;BMP180;9652;49.014;12.052;2023-12-28T10:15:57;98153.00;;;8.80
19040;BMP180;9652;49.014;12.052;2023-12-28T10:18:24;98154.00;;;8.80
19040;BMP180;9652;49.014;12.052;2023-12-28T10:20:52;98153.00;;;8.80
19040;BMP180;9652;49.014;12.052;2023-12-28T10:23:21;98130.00;;;8.90
19040;BMP180;9652;49.014;12.052;2023-12-28T10:25:51;98146.00;;;8.90
19040;BMP180;9652;49.014;12.052;2023-12-28T10:28:19;98121.00;;;9.00
19040;BMP180;9652;49.014;12.052;2023-12-28T10:30:46;98142.00;;;9.00
19040;BMP180;9652;49.014;12.052;2023-12-28T10:33:14;98128.00;;;8.70
19040;BMP180;9652;49.014;12.052;2023-12-28T10:35:42;98128.00;;;9.10
19040;BMP180;9652;49.014;12.052;2023-12-28T10:38:13;98126.00;;;9.10
19040;BMP180;9652;49.014;12.052;2023-12-28T10:40:46;98118.00;;;9.10
19040;BMP180;9652;49.014;12.052;2023-12-28T10:43:16;98125.00;;;9.10
19040;BMP180;9652;49.014;12.052;2023-12-28T10:45:50;98117.00;;;9.20
19040;BMP180;9652;49.014;12.052;2023-12-28T10:48:27;98123.00;;;9.20
19040;BMP180;9652;49.014;12.052;2023-12-28T10:50:58;98106.00;;;9.20
19040;BMP180;9652;49.014;12.052;2023-12-28T10:53:37;98121.00;;;9.20
19040;BMP180;9652;49.014;12.052;2023-12-28T10:56:25;98101.00;;;9.20
19040;BMP180;9652;49.014;12.052;2023-12-28T10:59:07;98098.00;;;9.20
19040;BMP180;9652;49.014;12.052;2023-12-28T11:01:41;98095.00;;;9.20
19040;BMP180;9652;49.014;12.052;2023-12-28T11:04:19;98101.00;;;9.30
19040;BMP180;9652;49.014;12.052;2023-12-28T11:06:49;98093.00;;;9.30
19040;BMP180;9652;49.014;12.052;2023-12-28T11:09:18;98079.00;;;9.30
19040;BMP180;9652;49.014;12.052;2023-12-28T11:11:55;98072.00;;;9.30
19040;BMP180;9652;49.014;12.052;2023-12-28T11:14:26;98082.00;;;9.30
19040;BMP180;9652;49.014;12.052;2023-12-28T11:16:55;98071.00;;;9.40
19040;BMP180;9652;49.014;12.052;2023-12-28T11:19:24;98075.00;;;9.40
19040;BMP180;9652;49.014;12.052;2023-12-28T11:21:52;98073.00;;;9.40
19040;BMP180;9652;49.014;12.052;2023-12-28T11:24:22;98076.00;;;9.40
19040;BMP180;9652;49.014;12.052;2023-12-28T11:26:54;98067.00;;;9.40
19040;BMP180;9652;49.014;12.052;2023-12-28T11:29:22;98074.00;;;9.40
19040;BMP180;9652;49.014;12.052;2023-12-28T11:31:51;98041.00;;;9.40
19040;BMP180;9652;49.014;12.052;2023-12-28T11:34:18;98065.00;;;9.50
19040;BMP180;9652;49.014;12.052;2023-12-28T11:36:49;98050.00;;;9.50
19040;BMP180;9652;49.014;12.052;2023-12-28T11:39:31;98059.00;;;9.50
19040;BMP180;9652;49.014;12.052;2023-12-28T11:42:03;98051.00;;;9.50
19040;BMP180;9652;49.014;12.052;2023-12-28T11:44:36;98056.00;;;9.50
19040;BMP180;9652;49.014;12.052;2023-12-28T11:47:11;98022.00;;;9.50
19040;BMP180;9652;49.014;12.052;2023-12-28T11:49:39;98072.00;;;9.60
19040;BMP180;9652;49.014;12.052;2023-12-28T11:52:08;98067.00;;;9.60
19040;BMP180;9652;49.014;12.052;2023-12-28T11:54:36;98074.00;;;9.60
19040;BMP180;9652;49.014;12.052;2023-12-28T11:57:05;98063.00;;;9.70
19040;BMP180;9652;49.014;12.052;2023-12-28T11:59:32;98064.00;;;9.70
19040;BMP180;9652;49.014;12.052;2023-12-28T12:02:00;98072.00;;;9.70
19040;BMP180;9652;49.014;12.052;2023-12-28T12:04:28;98080.00;;;9.70
19040;BMP180;9652;49.014;12.052;2023-12-28T12:06:55;98076.00;;;9.80
19040;BMP180;9652;49.014;12.052;2023-12-28T12:09:22;98082.00;;;9.80
19040;BMP180;9652;49.014;12.052;2023-12-28T12:11:49;98092.00;;;9.80
19040;BMP180;9652;49.014;12.052;2023-12-28T12:14:18;98081.00;;;9.90
19040;BMP180;9652;49.014;12.052;2023-12-28T12:16:45;98081.00;;;9.90
19040;BMP180;9652;49.014;12.052;2023-12-28T12:19:13;98066.00;;;9.90
19040;BMP180;9652;49.014;12.052;2023-12-28T12:21:40;98079.00;;;9.90
19040;BMP180;9652;49.014;12.052;2023-12-28T12:24:07;98071.00;;;10.00
19040;BMP180;9652;49.014;12.052;2023-12-28T12:26:34;98072.00;;;10.00
19040;BMP180;9652;49.014;12.052;2023-12-28T12:29:02;98080.00;;;10.00
19040;BMP180;9652;49.014;12.052;2023-12-28T12:31:31;98073.00;;;9.80
19040;BMP180;9652;49.014;12.052;2023-12-28T12:33:58;98084.00;;;10.10
19040;BMP180;9652;49.014;12.052;2023-12-28T12:36:25;98078.00;;;10.10
19040;BMP180;9652;49.014;12.052;2023-12-28T12:38:52;98058.00;;;10.10
19040;BMP180;9652;49.014;12.052;2023-12-28T12:41:19;98055.00;;;10.20
19040;BMP180;9652;49.014;12.052;2023-12-28T12:43:46;98054.00;;;10.20
19040;BMP180;9652;49.014;12.052;2023-12-28T12:46:14;98048.00;;;10.20
19040;BMP180;9652;49.014;12.052;2023-12-28T12:48:43;98057.00;;;10.30
19040;BMP180;9652;49.014;12.052;2023-12-28T12:51:10;98061.00;;;10.30
19040;BMP180;9652;49.014;12.052;2023-12-28T12:53:37;98068.00;;;10.30
19040;BMP180;9652;49.014;12.052;2023-12-28T12:56:04;98059.00;;;10.30
19040;BMP180;9652;49.014;12.052;2023-12-28T12:58:33;98054.00;;;10.30
19040;BMP180;9652;49.014;12.052;2023-12-28T13:01:00;98046.00;;;10.40
19040;BMP180;9652;49.014;12.052;2023-12-28T13:03:30;98056.00;;;10.40
19040;BMP180;9652;49.014;12.052;2023-12-28T13:05:58;98034.00;;;10.40
19040;BMP180;9652;49.014;12.052;2023-12-28T13:08:25;98035.00;;;10.40
19040;BMP180;9652;49.014;12.052;2023-12-28T13:10:52;98017.00;;;10.40
19040;BMP180;9652;49.014;12.052;2023-12-28T13:13:19;98024.00;;;10.40
19040;BMP180;9652;49.014;12.052;2023-12-28T13:15:46;98030.00;;;10.40
19040;BMP180;9652;49.014;12.052;2023-12-28T13:18:13;98017.00;;;10.40
19040;BMP180;9652;49.014;12.052;2023-12-28T13:20:41;98022.00;;;10.40
19040;BMP180;9652;49.014;12.052;2023-12-28T13:23:11;98017.00;;;10.40
19040;BMP180;9652;49.014;12.052;2023-12-28T13:25:38;98026.00;;;10.40
19040;BMP180;9652;49.014;12.052;2023-12-28T13:28:05;98012.00;;;10.40
19040;BMP180;9652;49.014;12.052;2023-12-28T13:30:33;98026.00;;;10.40
19040;BMP180;9652;49.014;12.052;2023-12-28T13:33:02;98023.00;;;10.40
19040;BMP180;9652;49.014;12.052;2023-12-28T13:35:30;98017.00;;;10.40
19040;BMP180;9652;49.014;12.052;2023-12-28T13:37:59;98031.00;;;10.40
19040;BMP180;9652;49.014;12.052;2023-12-28T13:40:28;98004.00;;;10.40
19040;BMP180;9652;49.014;12.052;2023-12-28T13:42:56;98014.00;;;10.40
19040;BMP180;9652;49.014;12.052;2023-12-28T13:45:23;98022.00;;;10.40
19040;BMP180;9652;49.014;12.052;2023-12-28T13:47:50;98030.00;;;10.40
19040;BMP180;9652;49.014;12.052;2023-12-28T13:50:17;98028.00;;;10.40
19040;BMP180;9652;49.014;12.052;2023-12-28T13:52:45;97999.00;;;10.40
19040;BMP180;9652;49.014;12.052;2023-12-28T13:55:12;98023.00;;;10.40
19040;BMP180;9652;49.014;12.052;2023-12-28T13:57:41;98011.00;;;10.40
19040;BMP180;9652;49.014;12.052;2023-12-28T14:00:08;97999.00;;;10.40
19040;BMP180;9652;49.014;12.052;2023-12-28T14:02:41;98030.00;;;10.40
19040;BMP180;9652;49.014;12.052;2023-12-28T14:05:08;98009.00;;;10.40
19040;BMP180;9652;49.014;12.052;2023-12-28T14:07:35;98011.00;;;10.40
19040;BMP180;9652;49.014;12.052;2023-12-28T14:10:03;98011.00;;;10.40
19040;BMP180;9652;49.014;12.052;2023-12-28T14:12:30;98031.00;;;10.30
19040;BMP180;9652;49.014;12.052;2023-12-28T14:14:58;98018.00;;;10.30
19040;BMP180;9652;49.014;12.052;2023-12-28T14:17:25;98016.00;;;10.30
19040;BMP180;9652;49.014;12.052;2023-12-28T14:19:52;98027.00;;;10.20
19040;BMP180;9652;49.014;12.052;2023-12-28T14:22:20;98029.00;;;10.20
19040;BMP180;9652;49.014;12.052;2023-12-28T14:24:48;98033.00;;;10.20